Time;durP1;ratioP1;P1;durP2;ratioP2;P2;SDS_P1;SDS_P2;PMS_P1;PMS_P2;Temp;Humidity;BMP_temperature;BMP_pressure;BME280_temperature;BME280_humidity;BME280_pressure;Samples;Min_cycle;Max_cycle;Signal;HPM_P1;HPM_P2
2022/05/27 00:02:21;;;;;;;92.38;29.27;;;;;;;;;;5008266;28;20181;-55
2022/05/27 00:04:47;;;;;;;48.75;18.63;;;17.20;99.90;;;;;;4999678;28;20216;-55
2022/05/27 00:07:12;;;;;;;107.30;33.13;;;17.30;1.00;;;;;;5002410;28;20701;-55
2022/05/27 00:09:38;;;;;;;79.10;26.40;;;;;;;;;;5011037;28;20621;-55
2022/05/27 00:12:04;;;;;;;185.20;54.78;;;;;;;;;;5006792;28;20307;-55
2022/05/27 00:14:30;;;;;;;54.42;21.10;;;;;;;;;;5005279;28;20189;-55
2022/05/27 00:16:56;;;;;;;114.30;34.78;;;17.40;99.90;;;;;;5003101;28;20731;-54
2022/05/27 00:19:22;;;;;;;53.45;20.92;;;;;;;;;;5008469;28;21057;-54
2022/05/27 00:21:48;;;;;;;130.73;41.72;;;;;;;;;;5003933;28;20696;-54
2022/05/27 00:24:13;;;;;;;111.60;34.05;;;;;;;;;;5000541;28;20219;-55
2022/05/27 00:26:39;;;;;;;80.60;29.95;;;;;;;;;;5011141;28;20191;-55
2022/05/27 00:29:05;;;;;;;116.55;38.25;;;;;;;;;;4998123;28;20267;-55
2022/05/27 00:31:32;;;;;;;66.97;26.23;;;;;;;;;;5000810;28;20286;-54
2022/05/27 00:33:58;;;;;;;136.63;42.38;;;;;;;;;;5003893;28;20218;-55
2022/05/27 00:36:24;;;;;;;122.55;37.50;;;;;;;;;;5003990;28;20216;-54
2022/05/27 00:38:50;;;;;;;161.77;47.78;;;17.20;1.00;;;;;;5002177;28;20681;-55
2022/05/27 00:41:16;;;;;;;132.43;39.65;;;;;;;;;;5001526;28;20231;-55
2022/05/27 00:43:43;;;;;;;121.55;37.83;;;17.20;1.00;;;;;;4999659;28;20600;-55
2022/05/27 00:46:22;;;;;;;87.75;29.02;;;17.10;1.00;;;;;;5003883;28;22727;-56
2022/05/27 00:48:51;;;;;;;99.32;32.47;;;17.10;1.00;;;;;;5001776;28;20311;-55
2022/05/27 00:51:21;;;;;;;93.28;28.35;;;16.90;1.00;;;;;;5004907;28;20780;-55
2022/05/27 00:54:08;;;;;;;37.90;15.70;;;16.90;1.00;;;;;;5006972;28;20600;-54
2022/05/27 00:56:39;;;;;;;106.93;32.90;;;16.90;1.00;;;;;;5003562;28;20584;-54
2022/05/27 00:59:12;;;;;;;117.45;34.88;;;16.80;1.00;;;;;;5000328;28;20418;-55
2022/05/27 01:01:37;;;;;;;80.57;25.30;;;16.90;1.00;;;;;;5005105;28;20715;-55
2022/05/27 01:04:04;;;;;;;115.00;33.45;;;16.80;1.00;;;;;;5007455;28;20208;-55
2022/05/27 01:06:30;;;;;;;87.07;26.50;;;;;;;;;;5009642;28;20208;-54
2022/05/27 01:08:56;;;;;;;104.00;31.58;;;16.90;1.00;;;;;;5002736;28;20228;-54
2022/05/27 01:11:38;;;;;;;91.55;27.52;;;16.50;28.30;;;;;;4999656;28;20448;-55
2022/05/27 01:14:21;;;;;;;134.55;40.67;;;16.50;42.70;;;;;;4997152;28;20669;-55
2022/05/27 01:17:12;;;;;;;111.50;30.83;;;16.40;42.30;;;;;;5001907;28;20212;-55
2022/05/27 01:20:19;;;;;;;100.13;28.88;;;16.20;77.10;;;;;;5000833;28;20573;-55
2022/05/27 01:22:47;;;;;;;94.80;27.05;;;16.10;99.90;;;;;;5007389;28;20205;-54
2022/05/27 01:25:29;;;;;;;107.90;29.92;;;15.90;99.90;;;;;;5002765;28;20221;-54
2022/05/27 01:28:21;;;;;;;126.88;34.13;;;15.80;99.90;;;;;;5007274;28;20216;-54
2022/05/27 01:30:51;;;;;;;127.15;32.92;;;15.40;99.90;;;;;;4993926;28;20239;-54
2022/05/27 01:33:44;;;;;;;180.60;43.60;;;15.30;99.90;;;;;;5002668;28;20222;-54
2022/05/27 01:36:47;;;;;;;97.75;25.50;;;15.40;99.90;;;;;;5011051;28;22832;-54
2022/05/27 01:39:39;;;;;;;84.72;21.85;;;15.10;99.90;;;;;;5008145;28;20753;-54
2022/05/27 01:42:19;;;;;;;149.18;38.40;;;15.00;99.90;;;;;;5002529;28;20266;-54
2022/05/27 01:44:45;;;;;;;153.45;38.45;;;;;;;;;;5001737;28;20203;-54
2022/05/27 01:47:22;;;;;;;104.30;26.20;;;14.80;99.90;;;;;;5004763;28;20207;-54
2022/05/27 01:49:55;;;;;;;82.10;21.52;;;14.80;99.90;;;;;;5000004;28;20255;-54
2022/05/27 01:52:21;;;;;;;126.43;30.35;;;;;;;;;;5001410;28;20594;-54
2022/05/27 01:55:13;;;;;;;96.88;25.90;;;14.80;99.90;;;;;;5001987;28;20213;-54
2022/05/27 01:57:48;;;;;;;84.65;22.48;;;14.70;99.90;;;;;;5000832;28;20220;-54
2022/05/27 02:00:22;;;;;;;177.40;43.03;;;14.60;99.90;;;;;;4995727;28;20223;-54
2022/05/27 02:02:53;;;;;;;88.13;24.85;;;14.60;99.90;;;;;;5001381;28;20331;-54
2022/05/27 02:05:56;;;;;;;116.63;30.00;;;14.50;99.90;;;;;;5001349;28;20196;-54
2022/05/27 02:08:27;;;;;;;116.72;29.35;;;14.60;99.90;;;;;;4984466;28;20212;-54
2022/05/27 02:11:09;;;;;;;116.50;29.17;;;14.40;99.90;;;;;;4999286;28;20223;-54
2022/05/27 02:13:48;;;;;;;113.93;30.40;;;14.60;99.90;;;;;;5000323;28;20227;-55
2022/05/27 02:16:41;;;;;;;70.60;18.73;;;14.50;99.90;;;;;;5006848;28;20227;-53
2022/05/27 02:19:20;;;;;;;163.90;41.30;;;14.50;99.90;;;;;;4998336;28;20679;-54
2022/05/27 02:22:00;;;;;;;108.40;28.20;;;14.40;99.90;;;;;;5002289;28;20306;-54
2022/05/27 02:24:39;;;;;;;158.93;41.25;;;14.30;99.90;;;;;;5001010;28;20223;-54
2022/05/27 02:27:11;;;;;;;106.72;27.95;;;14.40;99.90;;;;;;5003758;28;20228;-54
2022/05/27 02:29:37;;;;;;;76.15;20.95;;;;;;;;;;5000144;28;20193;-53
2022/05/27 02:32:21;;;;;;;107.10;29.83;;;14.40;99.90;;;;;;4999520;28;20697;-53
2022/05/27 02:35:09;;;;;;;145.97;38.23;;;14.10;99.90;;;;;;4996803;28;20227;-54
2022/05/27 02:37:45;;;;;;;131.82;35.17;;;14.20;99.90;;;;;;4999427;28;20226;-54
2022/05/27 02:40:15;;;;;;;126.90;33.80;;;14.50;99.90;;;;;;5006710;28;20225;-54
2022/05/27 02:42:58;;;;;;;75.03;21.35;;;14.20;99.90;;;;;;4998790;28;20291;-53
2022/05/27 02:45:39;;;;;;;116.78;31.45;;;14.40;99.90;;;;;;4999916;28;20612;-54
2022/05/27 02:48:37;;;;;;;99.17;25.70;;;14.30;99.90;;;;;;4997546;28;20600;-53
2022/05/27 02:51:35;;;;;;;123.22;31.30;;;14.40;99.90;;;;;;4996215;28;20224;-54
2022/05/27 02:54:01;;;;;;;56.70;16.83;;;;;;;;;;5001613;28;20674;-54
2022/05/27 02:56:32;;;;;;;118.05;30.95;;;14.40;99.90;;;;;;5005532;28;20186;-54
2022/05/27 02:58:58;;;;;;;115.30;30.90;;;14.50;99.90;;;;;;5001014;28;20228;-54
2022/05/27 03:01:23;;;;;;;126.97;33.83;;;;;;;;;;5008443;28;20224;-53
2022/05/27 03:03:49;;;;;;;154.00;40.85;;;14.30;99.90;;;;;;4997716;28;20303;-54
2022/05/27 03:06:27;;;;;;;91.85;24.73;;;14.40;99.90;;;;;;5003742;28;20281;-53
2022/05/27 03:09:11;;;;;;;97.43;27.00;;;14.50;99.90;;;;;;5010647;28;20754;-54
2022/05/27 03:11:45;;;;;;;96.32;26.88;;;14.50;99.90;;;;;;5005678;28;20223;-54
2022/05/27 03:14:37;;;;;;;111.97;30.73;;;14.70;99.90;;;;;;5000522;28;20194;-54
2022/05/27 03:17:21;;;;;;;95.78;25.80;;;14.60;99.90;;;;;;5002331;28;20220;-54
2022/05/27 03:20:28;;;;;;;152.43;39.43;;;14.40;99.90;;;;;;5006726;28;20220;-54
2022/05/27 03:23:21;;;;;;;72.93;21.98;;;14.50;99.90;;;;;;5005631;28;20521;-54
2022/05/27 03:26:00;;;;;;;63.33;19.67;;;14.60;99.90;;;;;;5011167;28;20244;-54
2022/05/27 03:28:41;;;;;;;94.05;26.20;;;14.60;99.90;;;;;;5007243;28;20220;-54
2022/05/27 03:31:07;;;;;;;94.47;28.70;;;;;;;;;;5006402;28;20753;-54
2022/05/27 03:33:47;;;;;;;107.90;32.53;;;14.60;99.90;;;;;;5009899;28;20216;-54
2022/05/27 03:36:28;;;;;;;119.73;35.67;;;14.50;99.90;;;;;;5007298;28;20239;-54
2022/05/27 03:39:06;;;;;;;83.65;28.17;;;14.50;99.90;;;;;;5012285;28;20290;-54
2022/05/27 03:41:37;;;;;;;95.63;34.07;;;14.50;99.90;;;;;;5005330;28;20202;-54
2022/05/27 03:44:03;;;;;;;178.23;96.97;;;;;;;;;;5001418;28;20689;-55
2022/05/27 03:46:34;;;;;;;158.10;109.03;;;14.20;99.90;;;;;;5010873;28;21779;-53
2022/05/27 03:49:00;;;;;;;268.77;140.00;;;14.60;99.90;;;;;;5001475;28;20243;-54
2022/05/27 03:51:31;;;;;;;279.73;146.93;;;15.20;99.90;;;;;;5003679;28;20220;-53
2022/05/27 03:54:03;;;;;;;269.50;141.23;;;14.70;99.90;;;;;;4999541;28;20216;-53
2022/05/27 03:56:31;;;;;;;242.60;136.70;;;14.70;99.90;;;;;;5009097;28;21826;-51
2022/05/27 03:58:57;;;;;;;336.30;169.20;;;14.70;99.90;;;;;;5005220;28;20309;-53
2022/05/27 04:01:25;;;;;;;272.07;146.20;;;14.60;99.90;;;;;;5012784;28;20220;-53
2022/05/27 04:03:50;;;;;;;283.27;150.97;;;;;;;;;;5010527;28;20303;-53
2022/05/27 04:06:16;;;;;;;277.13;145.33;;;;;;;;;;5008665;28;20304;-52
2022/05/27 04:08:42;;;;;;;270.33;146.63;;;;;;;;;;5012754;28;20205;-53
2022/05/27 04:11:08;;;;;;;257.67;140.80;;;;;;;;;;5010366;28;20595;-52
2022/05/27 04:13:34;;;;;;;267.20;145.07;;;;;;;;;;4999672;28;20624;-52
2022/05/27 04:16:00;;;;;;;296.50;158.60;;;;;;;;;;4999613;28;20518;-53
2022/05/27 04:18:26;;;;;;;422.80;208.77;;;;;;;;;;4998408;28;20228;-53
2022/05/27 04:20:52;;;;;;;328.77;170.57;;;;;;;;;;4999535;28;20773;-52
2022/05/27 04:23:18;;;;;;;301.87;155.27;;;;;;;;;;5002638;28;20268;-53
2022/05/27 04:25:48;;;;;;;236.50;132.27;;;14.90;99.90;;;;;;5007729;28;20227;-53
2022/05/27 04:28:14;;;;;;;323.37;163.27;;;;;;;;;;5009574;28;20232;-53
2022/05/27 04:30:41;;;;;;;310.37;161.70;;;;;;;;;;5002579;28;20850;-53
2022/05/27 04:33:08;;;;;;;334.33;169.77;;;;;;;;;;5004780;28;20371;-53
2022/05/27 04:35:34;;;;;;;327.40;166.63;;;;;;;;;;5002860;28;20185;-53
2022/05/27 04:38:00;;;;;;;307.97;156.90;;;;;;;;;;5004166;28;20204;-53
2022/05/27 04:40:25;;;;;;;379.50;186.27;;;;;;;;;;5004320;28;20224;-52
2022/05/27 04:42:51;;;;;;;330.43;167.53;;;;;;;;;;5006990;28;20307;-53
2022/05/27 04:45:19;;;;;;;322.37;167.33;;;;;;;;;;5001872;28;20227;-52
2022/05/27 04:47:45;;;;;;;329.43;169.90;;;;;;;;;;5006897;28;20326;-53
2022/05/27 04:50:11;;;;;;;372.40;188.03;;;;;;;;;;4998402;28;20200;-53
2022/05/27 04:52:38;;;;;;;309.27;162.67;;;14.90;99.90;;;;;;5001599;28;20216;-53
2022/05/27 04:55:09;;;;;;;337.73;175.80;;;14.90;99.90;;;;;;5002960;28;20757;-53
2022/05/27 04:57:38;;;;;;;274.97;149.77;;;14.90;99.90;;;;;;5000913;28;20220;-54
2022/05/27 05:00:11;;;;;;;366.27;180.43;;;14.90;99.90;;;;;;4998073;28;20501;-52
2022/05/27 05:02:36;;;;;;;280.10;150.00;;;15.10;99.90;;;;;;4997888;28;20220;-53
2022/05/27 05:05:02;;;;;;;319.93;166.37;;;;;;;;;;5001502;28;20299;-53
2022/05/27 05:07:28;;;;;;;350.10;173.67;;;;;;;;;;5001206;28;20228;-53
2022/05/27 05:09:54;;;;;;;286.60;149.80;;;;;;;;;;5001263;28;25016;-53
2022/05/27 05:12:22;;;;;;;342.67;170.27;;;15.00;99.90;;;;;;5000482;28;20565;-53
2022/05/27 05:14:49;;;;;;;303.57;152.83;;;;;;;;;;5009909;28;20216;-53
2022/05/27 05:17:15;;;;;;;310.83;157.87;;;;;;;;;;4993712;28;20311;-53
2022/05/27 05:19:41;;;;;;;312.97;159.70;;;;;;;;;;4997809;28;20314;-53
2022/05/27 05:22:07;;;;;;;302.17;158.77;;;;;;;;;;5008559;28;20627;-52
2022/05/27 05:24:32;;;;;;;283.33;151.90;;;;;;;;;;5005908;28;20219;-54
2022/05/27 05:26:59;;;;;;;278.60;150.73;;;;;;;;;;5012789;28;20219;-53
2022/05/27 05:29:25;;;;;;;283.40;150.33;;;;;;;;;;5012203;28;20700;-54
2022/05/27 05:31:51;;;;;;;273.83;146.40;;;;;;;;;;5008028;28;20247;-54
2022/05/27 05:34:16;;;;;;;230.17;134.07;;;;;;;;;;5011773;28;20254;-54
2022/05/27 05:36:42;;;;;;;285.93;154.20;;;15.10;99.90;;;;;;5006180;28;20213;-54
2022/05/27 05:39:08;;;;;;;301.97;162.57;;;;;;;;;;4989864;28;20224;-54
2022/05/27 05:41:37;;;;;;;326.87;170.73;;;15.10;99.90;;;;;;5002077;28;20193;-54
2022/05/27 05:44:04;;;;;;;281.63;153.13;;;15.20;99.90;;;;;;5010861;28;20193;-54
2022/05/27 05:46:33;;;;;;;317.80;169.03;;;15.20;99.90;;;;;;5001751;28;20212;-54
2022/05/27 05:48:58;;;;;;;283.57;150.97;;;;;;;;;;5003594;28;20217;-54
2022/05/27 05:51:24;;;;;;;336.00;172.77;;;15.40;99.90;;;;;;5002669;28;20657;-53
2022/05/27 05:53:50;;;;;;;282.87;151.70;;;;;;;;;;5002355;28;20244;-54
2022/05/27 05:56:16;;;;;;;501.37;243.00;;;;;;;;;;5003999;28;20191;-54
2022/05/27 05:58:42;;;;;;;330.43;165.47;;;15.10;99.90;;;;;;5007645;28;20212;-54
2022/05/27 06:01:08;;;;;;;372.20;184.40;;;;;;;;;;5006031;28;20263;-54
2022/05/27 06:03:34;;;;;;;368.07;175.20;;;;;;;;;;5006763;28;20212;-55
2022/05/27 06:06:00;;;;;;;316.80;156.73;;;;;;;;;;5013032;28;20282;-54
2022/05/27 06:08:27;;;;;;;316.80;155.50;;;;;;;;;;5016942;28;20271;-52
2022/05/27 06:10:53;;;;;;;329.57;159.13;;;;;;;;;;5014887;28;20244;-52
2022/05/27 06:13:20;;;;;;;316.77;155.20;;;;;;;;;;5009734;28;20219;-52
2022/05/27 06:15:46;;;;;;;344.33;172.63;;;;;;;;;;5009294;28;20550;-52
2022/05/27 06:18:13;;;;;;;412.87;194.27;;;;;;;;;;5011197;28;20873;-52
2022/05/27 06:20:40;;;;;;;335.03;164.67;;;;;;;;;;4996514;28;20205;-51
2022/05/27 06:23:07;;;;;;;355.23;162.30;;;;;;;;;;5007521;28;20688;-52
2022/05/27 06:25:33;;;;;;;320.93;152.63;;;;;;;;;;5005009;28;20224;-53
2022/05/27 06:36:15;;;;;;;304.30;151.47;;;14.60;84.00;;;;;;5000392;28;20218;-54
2022/05/27 06:38:41;;;;;;;390.87;178.87;;;14.30;99.90;;;;;;5005218;28;22982;-54
2022/05/27 06:41:06;;;;;;;302.00;148.53;;;14.30;99.90;;;;;;5004247;28;21202;-54
2022/05/27 06:43:32;;;;;;;239.07;124.87;;;14.00;99.90;;;;;;5004648;28;20212;-53
2022/05/27 06:45:59;;;;;;;323.93;148.63;;;;;;;;;;5004218;28;20349;-50
2022/05/27 06:48:25;;;;;;;347.17;159.53;;;;;;;;;;4989448;28;20342;-52
2022/05/27 06:50:51;;;;;;;193.20;114.00;;;;;;;;;;5007995;28;20223;-51
2022/05/27 06:53:17;;;;;;;281.93;131.40;;;;;;;;;;5017944;28;20185;-52
2022/05/27 06:55:48;;;;;;;244.80;136.93;;;13.90;99.90;;;;;;5003869;28;20216;-52
2022/05/27 06:58:13;;;;;;;251.70;134.73;;;13.80;99.90;;;;;;5009659;28;20736;-52
2022/05/27 07:00:39;;;;;;;186.03;112.23;;;;;;;;;;5012227;28;20223;-51
2022/05/27 07:03:07;;;;;;;232.53;125.07;;;;;;;;;;5013086;28;20226;-51
2022/05/27 07:05:33;;;;;;;211.30;119.90;;;13.60;99.90;;;;;;5003344;28;20594;-53
2022/05/27 07:07:59;;;;;;;203.77;119.03;;;;;;;;;;5001342;28;20285;-53
2022/05/27 07:10:24;;;;;;;260.47;142.07;;;13.70;99.90;;;;;;4997485;28;20429;-52
2022/05/27 07:12:50;;;;;;;200.00;118.80;;;;;;;;;;5003013;28;20212;-51
2022/05/27 07:15:16;;;;;;;234.97;129.43;;;;;;;;;;5001092;28;20648;-51
2022/05/27 07:17:43;;;;;;;183.17;113.13;;;14.00;99.90;;;;;;5009912;28;20650;-52
2022/05/27 07:20:09;;;;;;;219.80;128.27;;;14.00;99.90;;;;;;4996556;28;20205;-51
2022/05/27 07:22:35;;;;;;;258.13;133.60;;;;;;;;;;5008686;28;20205;-52
2022/05/27 07:25:01;;;;;;;182.03;115.33;;;;;;;;;;5011390;28;20212;-52
2022/05/27 07:27:27;;;;;;;236.33;135.17;;;;;;;;;;4991566;28;20225;-51
2022/05/27 07:29:53;;;;;;;236.83;135.60;;;;;;;;;;5006076;28;20225;-51
2022/05/27 07:32:18;;;;;;;229.30;132.07;;;;;;;;;;5010869;28;20262;-52
2022/05/27 07:34:46;;;;;;;197.77;122.57;;;14.60;99.90;;;;;;5001884;28;20213;-53
2022/05/27 07:37:12;;;;;;;301.10;154.80;;;;;;;;;;5009829;28;20221;-53
2022/05/27 07:39:38;;;;;;;200.13;122.53;;;;;;;;;;5011324;28;20231;-51
2022/05/27 07:42:04;;;;;;;292.20;157.93;;;15.30;99.90;;;;;;5002356;28;20220;-53
2022/05/27 07:44:30;;;;;;;255.20;148.37;;;;;;;;;;4995046;28;21466;-52
2022/05/27 07:46:56;;;;;;;213.67;126.40;;;;;;;;;;5012640;28;20224;-51
2022/05/27 07:49:22;;;;;;;304.53;156.73;;;;;;;;;;5005464;28;20668;-51
2022/05/27 07:51:48;;;;;;;264.83;146.17;;;;;;;;;;5000241;28;20220;-52
2022/05/27 07:54:14;;;;;;;352.33;179.83;;;;;;;;;;5001038;28;20215;-52
2022/05/27 07:56:40;;;;;;;364.33;186.03;;;15.40;68.10;;;;;;5001555;28;20188;-52
2022/05/27 07:59:06;;;;;;;300.80;158.17;;;;;;;;;;5000443;28;20640;-51
2022/05/27 08:01:32;;;;;;;319.63;170.07;;;;;;;;;;4994121;28;20220;-52
2022/05/27 08:03:58;;;;;;;270.53;144.03;;;;;;;;;;4997170;28;20497;-52
2022/05/27 08:06:24;;;;;;;343.13;173.40;;;;;;;;;;4999606;28;20231;-52
2022/05/27 08:08:50;;;;;;;293.30;158.53;;;;;;;;;;5002618;28;20217;-52
2022/05/27 08:11:16;;;;;;;350.57;180.50;;;;;;;;;;4995398;28;20288;-52
2022/05/27 08:13:42;;;;;;;332.03;174.47;;;;;;;;;;4998007;28;20725;-53
2022/05/27 08:16:08;;;;;;;326.10;174.15;;;;;;;;;;4997641;28;20223;-51
2022/05/27 08:18:34;;;;;;;349.30;188.33;;;;;;;;;;4997463;28;20227;-53
2022/05/27 08:21:00;;;;;;;346.70;187.27;;;17.50;1.00;;;;;;4999762;28;20228;-53
2022/05/27 08:23:26;;;;;;;377.30;189.50;;;;;;;;;;5001035;28;20184;-52
2022/05/27 08:25:54;;;;;;;451.73;220.50;;;16.40;1.00;;;;;;5000735;28;20307;-51
2022/05/27 08:28:24;;;;;;;378.87;190.23;;;;;;;;;;5004283;28;20231;-53
2022/05/27 08:30:51;;;;;;;331.57;168.13;;;16.60;1.00;;;;;;5007380;28;20220;-52
2022/05/27 08:33:17;;;;;;;357.33;174.80;;;;;;;;;;5002096;28;20316;-51
2022/05/27 08:38:35;;;;;;;470.50;222.03;;;;;;;;;;4994206;28;20307;-52
2022/05/27 08:41:29;;;;;;;486.90;215.47;;;16.50;1.00;;;;;;5005561;28;20204;-53
2022/05/27 08:44:10;;;;;;;354.63;174.37;;;16.70;1.00;;;;;;5001650;28;20550;-52
2022/05/27 08:46:57;;;;;;;338.53;169.00;;;16.60;1.00;;;;;;5014765;28;20623;-52
2022/05/27 08:49:34;;;;;;;299.80;160.47;;;16.60;1.00;;;;;;5015634;28;20248;-52
2022/05/27 08:52:11;;;;;;;313.87;169.13;;;16.60;1.00;;;;;;5014735;28;20243;-51
2022/05/27 08:54:42;;;;;;;297.60;160.57;;;16.50;1.00;;;;;;5010099;28;20700;-52
2022/05/27 09:00:06;;;;;;;310.67;159.50;;;16.70;99.90;;;;;;5012549;28;20263;-52
2022/05/27 09:02:45;;;;;;;290.03;151.70;;;16.70;91.70;;;;;;5014688;28;20188;-51
2022/05/27 09:05:28;;;;;;;275.60;145.40;;;16.90;99.90;;;;;;5013551;28;20195;-52
2022/05/27 09:08:04;;;;;;;317.77;161.20;;;16.80;99.90;;;;;;5010441;28;20221;-51
2022/05/27 09:10:30;;;;;;;346.00;168.10;;;;;;;;;;5010250;28;20285;-52
2022/05/27 09:13:24;;;;;;;278.43;148.60;;;16.50;99.90;;;;;;5011888;28;20212;-51
2022/05/27 09:15:59;;;;;;;312.93;161.83;;;16.50;1.00;;;;;;5016379;28;20487;-52
2022/05/27 09:18:35;;;;;;;325.67;165.50;;;16.60;1.00;;;;;;5011351;28;20223;-52
2022/05/27 09:21:23;;;;;;;318.87;164.87;;;16.60;1.00;;;;;;5013955;28;20227;-51
2022/05/27 09:24:10;;;;;;;304.03;154.90;;;14.20;63.70;;;;;;5008034;28;20911;-51
2022/05/27 09:26:42;;;;;;;296.00;154.03;;;16.70;1.00;;;;;;5012988;28;20195;-52
2022/05/27 09:29:41;;;;;;;294.33;154.30;;;16.10;1.00;;;;;;5010208;28;20182;-52
2022/05/27 09:32:13;;;;;;;288.47;149.97;;;;;;;;;;5017394;28;20204;-53
2022/05/27 09:34:41;;;;;;;278.27;146.17;;;;;;;;;;5013029;28;20236;-52
2022/05/27 09:37:09;;;;;;;310.10;163.87;;;;;;;;;;5012977;28;20700;-51
2022/05/27 09:39:35;;;;;;;303.10;152.67;;;;;;;;;;5015622;28;20216;-52
2022/05/27 09:42:17;;;;;;;327.63;165.43;;;;;;;;;;5010588;28;20324;-52
2022/05/27 09:44:54;;;;;;;312.97;164.70;;;;;;;;;;5011181;28;20523;-53
2022/05/27 09:47:21;;;;;;;291.43;144.27;;;17.40;99.90;;;;;;5015236;28;20266;-53
2022/05/27 09:49:50;;;;;;;307.37;156.57;;;;;;;;;;5012939;28;20223;-53
2022/05/27 09:52:16;;;;;;;519.97;248.33;;;;;;;;;;5011332;28;20343;-51
2022/05/27 09:54:51;;;;;;;315.65;154.27;;;17.40;99.90;;;;;;5004722;28;20316;-51
2022/05/27 09:57:25;;;;;;;318.30;162.63;;;17.40;99.90;;;;;;5013415;28;20240;-52
2022/05/27 09:59:57;;;;;;;329.70;173.97;;;17.40;99.90;;;;;;5011221;28;20306;-53
2022/05/27 10:02:34;;;;;;;329.17;172.93;;;17.60;99.90;;;;;;5018314;28;20238;-52
2022/05/27 10:05:22;;;;;;;322.87;157.83;;;17.50;99.90;;;;;;5006949;28;20236;-52
2022/05/27 10:07:54;;;;;;;350.83;176.97;;;17.50;99.90;;;;;;5008505;28;20224;-53
2022/05/27 10:10:20;;;;;;;354.07;177.80;;;;;;;;;;5012853;28;20220;-51
2022/05/27 10:12:46;;;;;;;338.70;169.90;;;;;;;;;;5007158;28;20218;-52
2022/05/27 10:15:35;;;;;;;313.67;157.27;;;17.50;99.90;;;;;;5011045;28;20262;-53
2022/05/27 10:18:26;;;;;;;370.47;179.57;;;17.40;99.90;;;;;;4992935;28;20645;-51
2022/05/27 10:20:58;;;;;;;341.37;166.90;;;16.90;99.90;;;;;;4990890;28;20616;-52
2022/05/27 10:23:29;;;;;;;418.50;198.90;;;17.20;99.90;;;;;;5002076;28;20618;-53
2022/05/27 10:25:55;;;;;;;464.33;215.53;;;;;;;;;;4993044;28;20297;-52
2022/05/27 10:28:27;;;;;;;429.33;197.40;;;17.30;99.90;;;;;;4995251;28;20262;-52
2022/05/27 10:31:13;;;;;;;357.20;174.43;;;17.50;99.90;;;;;;4994221;28;20217;-53
2022/05/27 10:33:42;;;;;;;356.80;167.80;;;17.50;99.90;;;;;;5015169;28;20432;-53
2022/05/27 10:36:46;;;;;;;360.20;173.83;;;17.50;97.70;;;;;;5011512;28;20223;-52
2022/05/27 10:39:34;;;;;;;341.10;166.70;;;17.60;96.10;;;;;;5015318;28;20316;-53
2022/05/27 10:42:30;;;;;;;330.67;161.93;;;17.80;88.60;;;;;;5015669;28;20228;-53
2022/05/27 10:45:22;;;;;;;346.30;168.13;;;17.80;91.10;;;;;;5012141;28;20584;-53
2022/05/27 10:48:07;;;;;;;308.97;155.03;;;18.00;80.80;;;;;;4993172;28;20235;-51
2022/05/27 10:51:02;;;;;;;306.77;159.40;;;17.90;63.20;;;;;;5012161;28;20754;-53
2022/05/27 10:54:02;;;;;;;351.07;172.50;;;18.10;60.00;;;;;;5015271;28;20219;-52
2022/05/27 11:03:09;;;;;;;314.20;157.47;;;17.80;1.00;;;;;;5014394;28;20797;-53
2022/05/27 11:06:00;;;;;;;338.70;168.40;;;17.40;1.00;;;;;;5012264;28;20185;-53
2022/05/27 11:08:28;;;;;;;439.27;194.13;;;17.80;74.90;;;;;;4999920;28;20294;-53
2022/05/27 11:11:26;;;;;;;431.00;191.37;;;17.80;72.20;;;;;;5000385;28;20213;-52
2022/05/27 11:17:36;;;;;;;435.83;214.60;;;18.60;99.90;;;;;;4994839;28;20224;-53
2022/05/27 11:20:35;;;;;;;329.70;162.93;;;18.80;99.90;;;;;;4978444;28;20326;-52
2022/05/27 11:23:34;;;;;;;342.27;167.13;;;18.60;51.40;;;;;;5001709;28;20224;-52
2022/05/27 11:26:21;;;;;;;374.43;175.70;;;18.70;61.90;;;;;;5008234;28;20222;-53
2022/05/27 11:29:23;;;;;;;439.87;207.53;;;18.80;43.10;;;;;;5001397;28;20219;-54
2022/05/27 11:32:16;;;;;;;384.77;194.03;;;18.90;25.20;;;;;;5003163;28;20215;-53
2022/05/27 11:35:12;;;;;;;399.13;201.23;;;18.70;19.30;;;;;;5000171;28;20223;-52
2022/05/27 11:38:03;;;;;;;384.20;191.00;;;18.40;29.00;;;;;;5005843;28;20587;-53
2022/05/27 11:40:59;;;;;;;326.52;163.18;;;18.10;36.40;;;;;;5012305;28;20220;-53
2022/05/27 11:44:01;;;;;;;459.50;208.17;;;15.70;53.80;;;;;;4995824;28;20223;-53
2022/05/27 11:46:47;;;;;;;337.70;169.50;;;18.00;99.90;;;;;;5005228;28;20228;-54
2022/05/27 11:49:50;;;;;;;360.63;178.05;;;18.10;77.70;;;;;;5010896;28;20262;-54
2022/05/27 11:52:50;;;;;;;363.25;170.02;;;20.80;67.10;;;;;;4994762;28;20217;-53
2022/05/27 11:55:45;;;;;;;367.00;177.63;;;18.80;1.00;;;;;;5011497;28;20238;-54
2022/05/27 11:58:20;;;;;;;310.33;166.05;;;19.10;1.00;;;;;;5005388;28;20240;-54
2022/05/27 12:01:01;;;;;;;407.27;205.15;;;19.20;99.90;;;;;;5001642;28;20311;-53
2022/05/27 12:03:36;;;;;;;323.93;164.03;;;19.40;12.70;;;;;;5012138;28;20227;-53
2022/05/27 12:06:11;;;;;;;269.33;152.70;;;19.30;99.90;;;;;;5021425;28;20223;-53
2022/05/27 12:08:42;;;;;;;340.25;178.75;;;19.10;99.90;;;;;;5016226;28;20219;-53
2022/05/27 12:11:47;;;;;;;330.15;171.02;;;19.10;1.00;;;;;;5019314;28;20190;-53
2022/05/27 12:14:38;;;;;;;374.30;192.20;;;19.10;3.20;;;;;;4994072;28;20213;-53
2022/05/27 12:17:11;;;;;;;308.98;175.07;;;19.30;1.00;;;;;;5008480;28;20306;-52
2022/05/27 12:19:41;;;;;;;180.80;136.02;;;19.30;60.30;;;;;;5023803;28;20280;-53
2022/05/27 12:22:20;;;;;;;323.63;178.75;;;19.00;1.00;;;;;;4996000;28;20231;-52
2022/05/27 12:24:51;;;;;;;387.35;201.18;;;22.00;1.00;;;;;;4998340;28;20278;-51
2022/05/27 12:27:19;;;;;;;406.83;194.90;;;18.70;1.00;;;;;;5001621;28;20311;-51
2022/05/27 12:29:48;;;;;;;330.87;166.50;;;18.60;1.00;;;;;;5002378;28;20199;-52
2022/05/27 12:32:16;;;;;;;261.38;149.02;;;18.80;1.00;;;;;;4995309;28;20188;-53
2022/05/27 12:34:45;;;;;;;177.27;127.78;;;19.10;1.00;;;;;;5012026;28;20696;-53
2022/05/27 12:37:26;;;;;;;268.58;165.52;;;19.20;1.00;;;;;;5004208;28;20653;-51
2022/05/27 12:40:13;;;;;;;308.65;176.05;;;19.60;99.90;;;;;;4995545;28;20482;-53
2022/05/27 12:42:41;;;;;;;213.10;143.27;;;19.70;1.00;;;;;;5002717;28;20354;-52
2022/05/27 12:45:27;;;;;;;257.05;163.27;;;19.70;99.90;;;;;;5011009;28;20217;-53
2022/05/27 12:47:53;;;;;;;332.73;184.68;;;19.30;1.00;;;;;;4995235;28;20282;-52
2022/05/27 12:50:30;;;;;;;397.15;217.60;;;19.30;1.00;;;;;;4993066;28;20921;-53
2022/05/27 12:53:17;;;;;;;363.00;202.25;;;19.20;1.00;;;;;;4993452;28;20266;-53
2022/05/27 13:01:28;;;;;;;94.53;43.15;;;18.40;1.00;;;;;;4992505;28;20270;-53
2022/05/27 13:03:56;;;;;;;106.13;36.10;;;18.00;99.90;;;;;;5001288;28;20219;-53
2022/05/27 13:06:22;;;;;;;216.95;64.57;;;;;;;;;;5003020;28;20351;-53
2022/05/27 13:08:50;;;;;;;55.05;23.77;;;18.40;1.00;;;;;;5006866;28;20295;-52
2022/05/27 13:11:31;;;;;;;249.57;76.85;;;18.90;1.00;;;;;;4991536;28;20271;-51
2022/05/27 13:14:08;;;;;;;147.02;46.60;;;19.20;1.00;;;;;;4993293;28;20748;-54
2022/05/27 13:16:56;;;;;;;255.13;65.25;;;19.60;1.00;;;;;;4999047;28;20216;-53
2022/05/27 13:19:22;;;;;;;108.00;41.40;;;;;;;;;;5000011;28;20593;-52
2022/05/27 13:21:56;;;;;;;246.98;66.63;;;19.70;1.00;;;;;;4984173;28;20225;-52
2022/05/27 13:24:51;;;;;;;166.98;59.63;;;20.10;19.60;;;;;;4991015;28;22025;-53
2022/05/27 13:27:28;;;;;;;175.45;53.03;;;20.00;1.00;;;;;;4986770;28;20593;-52
2022/05/27 13:29:53;;;;;;;228.82;74.55;;;;;;;;;;4992760;28;20275;-52
2022/05/27 13:32:52;;;;;;;283.63;106.63;;;20.10;1.00;;;;;;4991714;28;20177;-54
2022/05/27 13:35:20;;;;;;;269.45;106.35;;;19.60;1.00;;;;;;4985315;28;20208;-52
2022/05/27 13:37:46;;;;;;;117.00;73.60;;;;;;;;;;4996702;28;20220;-52
2022/05/27 13:40:30;;;;;;;242.30;106.93;;;20.00;1.00;;;;;;4995617;28;20998;-51
2022/05/27 13:43:01;;;;;;;149.45;111.00;;;19.90;1.00;;;;;;5005824;28;20287;-52
2022/05/27 13:45:58;;;;;;;176.73;107.35;;;20.10;1.00;;;;;;5001581;28;20461;-54
2022/05/27 13:48:28;;;;;;;201.15;111.50;;;19.90;1.00;;;;;;4985149;28;20220;-53
2022/05/27 13:51:09;;;;;;;286.35;135.80;;;19.50;1.00;;;;;;4999460;28;20609;-52
2022/05/27 13:53:35;;;;;;;180.85;99.65;;;19.10;1.00;;;;;;5001528;28;20992;-53
2022/05/27 13:56:21;;;;;;;179.05;105.40;;;19.00;1.00;;;;;;4997844;28;20249;-52